sensor_id;sensor_type;location;lat;lon;timestamp;temperature;humidity
39931;DHT22;26635;-35.248;149.138;2023-08-12T00:00:33;9.80;80.40
39931;DHT22;26635;-35.248;149.138;2023-08-12T00:03:06;9.80;81.40
39931;DHT22;26635;-35.248;149.138;2023-08-12T00:05:39;9.80;80.80
39931;DHT22;26635;-35.248;149.138;2023-08-12T00:08:11;9.80;81.20
39931;DHT22;26635;-35.248;149.138;2023-08-12T00:10:42;9.80;82.50
39931;DHT22;26635;-35.248;149.138;2023-08-12T00:13:13;9.90;82.90
39931;DHT22;26635;-35.248;149.138;2023-08-12T00:15:47;9.90;81.60
39931;DHT22;26635;-35.248;149.138;2023-08-12T00:18:18;10.00;81.20
39931;DHT22;26635;-35.248;149.138;2023-08-12T00:20:49;10.10;80.30
39931;DHT22;26635;-35.248;149.138;2023-08-12T00:23:21;10.10;79.60
39931;DHT22;26635;-35.248;149.138;2023-08-12T00:25:52;10.20;80.30
39931;DHT22;26635;-35.248;149.138;2023-08-12T00:28:23;10.30;80.30
39931;DHT22;26635;-35.248;149.138;2023-08-12T00:30:54;10.40;80.60
39931;DHT22;26635;-35.248;149.138;2023-08-12T00:33:25;10.60;80.10
39931;DHT22;26635;-35.248;149.138;2023-08-12T00:35:55;10.60;78.70
39931;DHT22;26635;-35.248;149.138;2023-08-12T00:38:26;10.80;80.20
39931;DHT22;26635;-35.248;149.138;2023-08-12T00:40:57;11.10;79.50
39931;DHT22;26635;-35.248;149.138;2023-08-12T00:43:28;11.30;76.90
39931;DHT22;26635;-35.248;149.138;2023-08-12T00:45:59;11.40;76.00
39931;DHT22;26635;-35.248;149.138;2023-08-12T00:48:31;11.50;75.80
39931;DHT22;26635;-35.248;149.138;2023-08-12T00:51:02;11.60;73.40
39931;DHT22;26635;-35.248;149.138;2023-08-12T00:53:33;11.60;74.50
39931;DHT22;26635;-35.248;149.138;2023-08-12T00:56:04;11.70;75.10
39931;DHT22;26635;-35.248;149.138;2023-08-12T00:58:38;11.70;76.00
39931;DHT22;26635;-35.248;149.138;2023-08-12T01:01:09;11.60;74.00
39931;DHT22;26635;-35.248;149.138;2023-08-12T01:03:43;11.50;75.10
39931;DHT22;26635;-35.248;149.138;2023-08-12T01:06:14;11.50;75.70
39931;DHT22;26635;-35.248;149.138;2023-08-12T01:08:47;11.40;75.60
39931;DHT22;26635;-35.248;149.138;2023-08-12T01:14:28;11.30;76.10
39931;DHT22;26635;-35.248;149.138;2023-08-12T01:17:06;11.40;76.20
39931;DHT22;26635;-35.248;149.138;2023-08-12T01:19:40;11.40;73.90
39931;DHT22;26635;-35.248;149.138;2023-08-12T01:22:12;11.40;75.30
39931;DHT22;26635;-35.248;149.138;2023-08-12T01:24:44;11.50;75.60
39931;DHT22;26635;-35.248;149.138;2023-08-12T01:27:15;11.50;74.30
39931;DHT22;26635;-35.248;149.138;2023-08-12T01:29:49;11.60;75.50
39931;DHT22;26635;-35.248;149.138;2023-08-12T01:37:52;11.80;77.00
39931;DHT22;26635;-35.248;149.138;2023-08-12T01:40:24;11.90;76.10
39931;DHT22;26635;-35.248;149.138;2023-08-12T01:42:56;11.90;76.00
39931;DHT22;26635;-35.248;149.138;2023-08-12T01:45:26;11.90;76.30
39931;DHT22;26635;-35.248;149.138;2023-08-12T01:47:57;11.90;76.40
39931;DHT22;26635;-35.248;149.138;2023-08-12T01:50:30;12.00;76.60
39931;DHT22;26635;-35.248;149.138;2023-08-12T01:53:02;12.10;76.20
39931;DHT22;26635;-35.248;149.138;2023-08-12T01:55:33;12.20;74.90
39931;DHT22;26635;-35.248;149.138;2023-08-12T01:58:04;12.30;74.50
39931;DHT22;26635;-35.248;149.138;2023-08-12T02:00:35;12.30;73.00
39931;DHT22;26635;-35.248;149.138;2023-08-12T02:03:06;12.30;73.80
39931;DHT22;26635;-35.248;149.138;2023-08-12T02:05:38;12.20;73.40
39931;DHT22;26635;-35.248;149.138;2023-08-12T02:08:09;12.20;73.50
39931;DHT22;26635;-35.248;149.138;2023-08-12T02:10:39;12.20;72.70
39931;DHT22;26635;-35.248;149.138;2023-08-12T02:13:10;12.10;71.80
39931;DHT22;26635;-35.248;149.138;2023-08-12T02:15:41;12.20;72.00
39931;DHT22;26635;-35.248;149.138;2023-08-12T02:18:12;12.20;71.90
39931;DHT22;26635;-35.248;149.138;2023-08-12T02:20:46;12.10;71.60
39931;DHT22;26635;-35.248;149.138;2023-08-12T02:23:19;12.10;72.80
39931;DHT22;26635;-35.248;149.138;2023-08-12T02:25:52;12.20;72.10
39931;DHT22;26635;-35.248;149.138;2023-08-12T02:28:25;12.20;72.00
39931;DHT22;26635;-35.248;149.138;2023-08-12T02:30:56;12.20;71.60
39931;DHT22;26635;-35.248;149.138;2023-08-12T02:33:27;12.20;72.00
39931;DHT22;26635;-35.248;149.138;2023-08-12T02:35:57;12.20;70.80
39931;DHT22;26635;-35.248;149.138;2023-08-12T02:38:30;12.20;70.90
39931;DHT22;26635;-35.248;149.138;2023-08-12T02:41:01;12.30;73.00
39931;DHT22;26635;-35.248;149.138;2023-08-12T02:43:32;12.40;73.50
39931;DHT22;26635;-35.248;149.138;2023-08-12T02:46:03;12.50;73.30
39931;DHT22;26635;-35.248;149.138;2023-08-12T02:48:36;12.50;73.20
39931;DHT22;26635;-35.248;149.138;2023-08-12T02:51:07;12.60;73.60
39931;DHT22;26635;-35.248;149.138;2023-08-12T02:53:38;12.60;73.30
39931;DHT22;26635;-35.248;149.138;2023-08-12T02:56:10;12.60;73.80
39931;DHT22;26635;-35.248;149.138;2023-08-12T02:58:42;12.60;73.40
39931;DHT22;26635;-35.248;149.138;2023-08-12T03:01:13;12.60;73.00
39931;DHT22;26635;-35.248;149.138;2023-08-12T03:03:45;12.60;73.50
39931;DHT22;26635;-35.248;149.138;2023-08-12T03:06:16;12.60;74.00
39931;DHT22;26635;-35.248;149.138;2023-08-12T03:08:47;12.60;73.70
39931;DHT22;26635;-35.248;149.138;2023-08-12T03:11:18;12.60;73.50
39931;DHT22;26635;-35.248;149.138;2023-08-12T03:13:49;12.60;74.20
39931;DHT22;26635;-35.248;149.138;2023-08-12T03:16:20;12.60;74.30
39931;DHT22;26635;-35.248;149.138;2023-08-12T03:18:52;12.60;74.70
39931;DHT22;26635;-35.248;149.138;2023-08-12T03:21:25;12.60;74.60
39931;DHT22;26635;-35.248;149.138;2023-08-12T03:23:57;12.60;74.90
39931;DHT22;26635;-35.248;149.138;2023-08-12T03:26:29;12.60;74.60
39931;DHT22;26635;-35.248;149.138;2023-08-12T03:29:00;12.70;74.70
39931;DHT22;26635;-35.248;149.138;2023-08-12T03:31:32;12.80;74.10
39931;DHT22;26635;-35.248;149.138;2023-08-12T03:34:03;12.80;74.10
39931;DHT22;26635;-35.248;149.138;2023-08-12T03:36:36;12.80;74.10
39931;DHT22;26635;-35.248;149.138;2023-08-12T03:39:07;12.90;74.70
39931;DHT22;26635;-35.248;149.138;2023-08-12T03:41:38;13.00;75.50
39931;DHT22;26635;-35.248;149.138;2023-08-12T03:44:10;13.00;74.60
39931;DHT22;26635;-35.248;149.138;2023-08-12T03:46:41;13.00;74.80
39931;DHT22;26635;-35.248;149.138;2023-08-12T03:49:13;12.90;74.90
39931;DHT22;26635;-35.248;149.138;2023-08-12T03:51:47;12.80;75.00
39931;DHT22;26635;-35.248;149.138;2023-08-12T03:54:18;12.80;74.70
39931;DHT22;26635;-35.248;149.138;2023-08-12T03:56:49;12.80;75.60
39931;DHT22;26635;-35.248;149.138;2023-08-12T03:59:20;12.70;75.50
39931;DHT22;26635;-35.248;149.138;2023-08-12T04:01:51;12.70;75.70
39931;DHT22;26635;-35.248;149.138;2023-08-12T04:04:21;12.80;76.00
39931;DHT22;26635;-35.248;149.138;2023-08-12T04:06:51;12.80;76.50
39931;DHT22;26635;-35.248;149.138;2023-08-12T04:09:22;13.00;77.30
39931;DHT22;26635;-35.248;149.138;2023-08-12T04:11:53;13.20;76.20
39931;DHT22;26635;-35.248;149.138;2023-08-12T04:14:24;13.40;75.30
39931;DHT22;26635;-35.248;149.138;2023-08-12T04:16:55;13.60;75.50
39931;DHT22;26635;-35.248;149.138;2023-08-12T04:19:26;13.70;74.10
39931;DHT22;26635;-35.248;149.138;2023-08-12T04:21:58;13.70;73.70
39931;DHT22;26635;-35.248;149.138;2023-08-12T04:24:29;13.70;74.00
39931;DHT22;26635;-35.248;149.138;2023-08-12T04:27:03;13.60;74.50
39931;DHT22;26635;-35.248;149.138;2023-08-12T04:29:35;13.60;74.50
39931;DHT22;26635;-35.248;149.138;2023-08-12T04:32:06;13.50;75.10
39931;DHT22;26635;-35.248;149.138;2023-08-12T04:34:37;13.50;75.60
39931;DHT22;26635;-35.248;149.138;2023-08-12T04:37:08;13.40;75.30
39931;DHT22;26635;-35.248;149.138;2023-08-12T04:39:39;13.30;75.10
39931;DHT22;26635;-35.248;149.138;2023-08-12T04:42:10;13.20;75.60
39931;DHT22;26635;-35.248;149.138;2023-08-12T04:44:41;13.30;76.40
39931;DHT22;26635;-35.248;149.138;2023-08-12T04:47:12;13.30;76.00
39931;DHT22;26635;-35.248;149.138;2023-08-12T04:49:43;13.30;76.00
39931;DHT22;26635;-35.248;149.138;2023-08-12T04:52:15;13.30;76.10
39931;DHT22;26635;-35.248;149.138;2023-08-12T04:54:45;13.30;75.60
39931;DHT22;26635;-35.248;149.138;2023-08-12T04:57:18;13.30;75.70
39931;DHT22;26635;-35.248;149.138;2023-08-12T04:59:49;13.20;76.00
39931;DHT22;26635;-35.248;149.138;2023-08-12T05:02:19;13.20;75.90
39931;DHT22;26635;-35.248;149.138;2023-08-12T05:04:52;13.20;75.80
39931;DHT22;26635;-35.248;149.138;2023-08-12T05:07:24;13.10;75.80
39931;DHT22;26635;-35.248;149.138;2023-08-12T05:09:54;13.10;76.40
39931;DHT22;26635;-35.248;149.138;2023-08-12T05:12:26;13.10;76.40
39931;DHT22;26635;-35.248;149.138;2023-08-12T05:14:57;13.10;76.60
39931;DHT22;26635;-35.248;149.138;2023-08-12T05:17:28;13.10;76.40
39931;DHT22;26635;-35.248;149.138;2023-08-12T05:19:59;13.10;76.40
39931;DHT22;26635;-35.248;149.138;2023-08-12T05:22:30;13.00;76.20
39931;DHT22;26635;-35.248;149.138;2023-08-12T05:25:06;12.90;76.50
39931;DHT22;26635;-35.248;149.138;2023-08-12T05:27:37;12.90;76.60
39931;DHT22;26635;-35.248;149.138;2023-08-12T05:30:09;12.80;77.00
39931;DHT22;26635;-35.248;149.138;2023-08-12T05:32:40;12.70;76.50
39931;DHT22;26635;-35.248;149.138;2023-08-12T05:35:11;12.70;77.10
39931;DHT22;26635;-35.248;149.138;2023-08-12T05:37:42;12.60;77.40
39931;DHT22;26635;-35.248;149.138;2023-08-12T05:40:13;12.60;77.50
39931;DHT22;26635;-35.248;149.138;2023-08-12T05:42:44;12.50;77.80
39931;DHT22;26635;-35.248;149.138;2023-08-12T05:45:15;12.50;77.50
39931;DHT22;26635;-35.248;149.138;2023-08-12T05:47:46;12.50;77.90
39931;DHT22;26635;-35.248;149.138;2023-08-12T05:50:17;12.40;77.40
39931;DHT22;26635;-35.248;149.138;2023-08-12T05:52:48;12.40;77.70
39931;DHT22;26635;-35.248;149.138;2023-08-12T05:55:20;12.40;77.70
39931;DHT22;26635;-35.248;149.138;2023-08-12T05:57:51;12.40;77.70
39931;DHT22;26635;-35.248;149.138;2023-08-12T06:00:22;12.40;77.90
39931;DHT22;26635;-35.248;149.138;2023-08-12T06:02:53;12.30;78.00
39931;DHT22;26635;-35.248;149.138;2023-08-12T06:05:23;12.30;78.10
39931;DHT22;26635;-35.248;149.138;2023-08-12T06:07:55;12.30;78.30
39931;DHT22;26635;-35.248;149.138;2023-08-12T06:10:25;12.30;78.20
39931;DHT22;26635;-35.248;149.138;2023-08-12T06:12:56;12.30;78.10
39931;DHT22;26635;-35.248;149.138;2023-08-12T06:15:27;12.30;77.70
39931;DHT22;26635;-35.248;149.138;2023-08-12T06:17:59;12.30;76.70
39931;DHT22;26635;-35.248;149.138;2023-08-12T06:20:30;12.30;76.20
39931;DHT22;26635;-35.248;149.138;2023-08-12T06:23:01;12.30;76.20
39931;DHT22;26635;-35.248;149.138;2023-08-12T06:25:32;12.20;76.70
39931;DHT22;26635;-35.248;149.138;2023-08-12T06:28:03;12.20;76.40
39931;DHT22;26635;-35.248;149.138;2023-08-12T06:30:38;12.20;76.40
39931;DHT22;26635;-35.248;149.138;2023-08-12T06:33:09;12.20;77.00
39931;DHT22;26635;-35.248;149.138;2023-08-12T06:35:41;12.20;76.40
39931;DHT22;26635;-35.248;149.138;2023-08-12T06:38:17;12.10;76.80
39931;DHT22;26635;-35.248;149.138;2023-08-12T06:41:00;12.00;77.00
39931;DHT22;26635;-35.248;149.138;2023-08-12T06:43:31;12.00;76.70
39931;DHT22;26635;-35.248;149.138;2023-08-12T06:46:02;12.00;77.50
39931;DHT22;26635;-35.248;149.138;2023-08-12T06:48:35;11.90;77.10
39931;DHT22;26635;-35.248;149.138;2023-08-12T06:51:06;11.90;77.60
39931;DHT22;26635;-35.248;149.138;2023-08-12T06:53:42;11.80;77.70
39931;DHT22;26635;-35.248;149.138;2023-08-12T06:56:13;11.70;78.20
39931;DHT22;26635;-35.248;149.138;2023-08-12T06:58:44;11.70;78.20
39931;DHT22;26635;-35.248;149.138;2023-08-12T07:01:14;11.80;78.50
39931;DHT22;26635;-35.248;149.138;2023-08-12T07:03:45;11.70;79.00
39931;DHT22;26635;-35.248;149.138;2023-08-12T07:06:16;11.70;79.40
39931;DHT22;26635;-35.248;149.138;2023-08-12T07:08:48;11.60;79.70
39931;DHT22;26635;-35.248;149.138;2023-08-12T07:11:19;11.50;79.60
39931;DHT22;26635;-35.248;149.138;2023-08-12T07:13:50;11.50;79.80
39931;DHT22;26635;-35.248;149.138;2023-08-12T07:16:21;11.50;80.20
39931;DHT22;26635;-35.248;149.138;2023-08-12T07:18:52;11.50;80.20
39931;DHT22;26635;-35.248;149.138;2023-08-12T07:21:23;11.40;80.40
39931;DHT22;26635;-35.248;149.138;2023-08-12T07:23:54;11.40;80.70
39931;DHT22;26635;-35.248;149.138;2023-08-12T07:26:31;11.40;80.60
39931;DHT22;26635;-35.248;149.138;2023-08-12T07:29:02;11.30;82.00
39931;DHT22;26635;-35.248;149.138;2023-08-12T07:31:34;11.30;81.20
39931;DHT22;26635;-35.248;149.138;2023-08-12T07:34:05;11.30;81.20
39931;DHT22;26635;-35.248;149.138;2023-08-12T07:36:37;11.20;81.50
39931;DHT22;26635;-35.248;149.138;2023-08-12T07:39:08;11.20;81.50
39931;DHT22;26635;-35.248;149.138;2023-08-12T07:41:38;11.20;81.60
39931;DHT22;26635;-35.248;149.138;2023-08-12T07:44:09;11.20;81.80
39931;DHT22;26635;-35.248;149.138;2023-08-12T07:46:41;11.20;81.70
39931;DHT22;26635;-35.248;149.138;2023-08-12T07:49:12;11.10;82.10
39931;DHT22;26635;-35.248;149.138;2023-08-12T07:51:43;11.10;82.60
39931;DHT22;26635;-35.248;149.138;2023-08-12T07:54:14;11.00;82.50
39931;DHT22;26635;-35.248;149.138;2023-08-12T07:56:46;11.00;82.60
39931;DHT22;26635;-35.248;149.138;2023-08-12T07:59:17;11.00;83.40
39931;DHT22;26635;-35.248;149.138;2023-08-12T08:01:48;10.90;83.10
39931;DHT22;26635;-35.248;149.138;2023-08-12T08:04:21;10.90;83.20
39931;DHT22;26635;-35.248;149.138;2023-08-12T08:06:52;10.90;83.30
39931;DHT22;26635;-35.248;149.138;2023-08-12T08:09:23;10.80;83.30
39931;DHT22;26635;-35.248;149.138;2023-08-12T08:11:54;10.80;83.20
39931;DHT22;26635;-35.248;149.138;2023-08-12T08:14:27;10.80;83.30
39931;DHT22;26635;-35.248;149.138;2023-08-12T08:16:58;10.80;83.40
39931;DHT22;26635;-35.248;149.138;2023-08-12T08:19:29;10.70;83.20
39931;DHT22;26635;-35.248;149.138;2023-08-12T08:22:02;10.70;83.90
39931;DHT22;26635;-35.248;149.138;2023-08-12T08:24:33;10.70;83.90
39931;DHT22;26635;-35.248;149.138;2023-08-12T08:27:04;10.70;84.10
39931;DHT22;26635;-35.248;149.138;2023-08-12T08:29:35;10.70;84.20
39931;DHT22;26635;-35.248;149.138;2023-08-12T08:32:07;10.60;84.40
39931;DHT22;26635;-35.248;149.138;2023-08-12T08:34:38;10.60;84.60
39931;DHT22;26635;-35.248;149.138;2023-08-12T08:37:09;10.60;85.40
39931;DHT22;26635;-35.248;149.138;2023-08-12T08:39:40;10.50;85.00
39931;DHT22;26635;-35.248;149.138;2023-08-12T08:42:12;10.40;85.00
39931;DHT22;26635;-35.248;149.138;2023-08-12T08:44:46;10.40;85.70
39931;DHT22;26635;-35.248;149.138;2023-08-12T08:47:25;10.30;85.80
39931;DHT22;26635;-35.248;149.138;2023-08-12T08:49:57;10.30;87.40
39931;DHT22;26635;-35.248;149.138;2023-08-12T08:52:28;10.20;87.20
39931;DHT22;26635;-35.248;149.138;2023-08-12T08:55:01;10.20;87.90
39931;DHT22;26635;-35.248;149.138;2023-08-12T08:57:37;10.10;86.80
39931;DHT22;26635;-35.248;149.138;2023-08-12T09:00:16;10.10;87.90
39931;DHT22;26635;-35.248;149.138;2023-08-12T09:02:47;10.00;88.30
39931;DHT22;26635;-35.248;149.138;2023-08-12T09:05:22;10.00;87.60
39931;DHT22;26635;-35.248;149.138;2023-08-12T09:07:54;10.00;88.40
39931;DHT22;26635;-35.248;149.138;2023-08-12T09:10:27;9.90;88.60
39931;DHT22;26635;-35.248;149.138;2023-08-12T09:12:59;9.90;88.50
39931;DHT22;26635;-35.248;149.138;2023-08-12T09:15:32;9.80;89.80
39931;DHT22;26635;-35.248;149.138;2023-08-12T09:18:06;9.80;88.60
39931;DHT22;26635;-35.248;149.138;2023-08-12T09:20:40;9.90;89.20
39931;DHT22;26635;-35.248;149.138;2023-08-12T09:23:13;9.90;89.40
39931;DHT22;26635;-35.248;149.138;2023-08-12T09:25:47;9.90;89.20
39931;DHT22;26635;-35.248;149.138;2023-08-12T09:28:19;9.90;89.30
39931;DHT22;26635;-35.248;149.138;2023-08-12T09:30:53;9.90;89.00
39931;DHT22;26635;-35.248;149.138;2023-08-12T09:33:27;9.90;89.30
39931;DHT22;26635;-35.248;149.138;2023-08-12T09:35:58;10.00;89.80
39931;DHT22;26635;-35.248;149.138;2023-08-12T09:38:28;10.00;89.60
39931;DHT22;26635;-35.248;149.138;2023-08-12T09:41:01;10.00;89.20
39931;DHT22;26635;-35.248;149.138;2023-08-12T09:43:32;10.00;89.20
39931;DHT22;26635;-35.248;149.138;2023-08-12T09:46:03;10.00;89.50
39931;DHT22;26635;-35.248;149.138;2023-08-12T09:48:34;10.00;89.50
39931;DHT22;26635;-35.248;149.138;2023-08-12T09:51:05;10.00;89.50
39931;DHT22;26635;-35.248;149.138;2023-08-12T09:53:37;9.90;89.50
39931;DHT22;26635;-35.248;149.138;2023-08-12T09:56:10;9.90;89.50
39931;DHT22;26635;-35.248;149.138;2023-08-12T09:58:42;10.00;89.80
39931;DHT22;26635;-35.248;149.138;2023-08-12T10:01:13;10.00;90.00
39931;DHT22;26635;-35.248;149.138;2023-08-12T10:03:50;10.00;90.20
39931;DHT22;26635;-35.248;149.138;2023-08-12T10:06:21;10.00;90.30
39931;DHT22;26635;-35.248;149.138;2023-08-12T10:08:53;10.00;90.50
39931;DHT22;26635;-35.248;149.138;2023-08-12T10:11:27;10.00;90.60
39931;DHT22;26635;-35.248;149.138;2023-08-12T10:13:59;10.00;90.60
39931;DHT22;26635;-35.248;149.138;2023-08-12T10:16:30;10.00;90.60
39931;DHT22;26635;-35.248;149.138;2023-08-12T10:19:04;10.00;90.60
39931;DHT22;26635;-35.248;149.138;2023-08-12T10:21:35;10.00;90.60
39931;DHT22;26635;-35.248;149.138;2023-08-12T10:24:07;10.00;90.60
39931;DHT22;26635;-35.248;149.138;2023-08-12T10:26:40;10.00;90.90
39931;DHT22;26635;-35.248;149.138;2023-08-12T10:29:11;10.00;90.80
39931;DHT22;26635;-35.248;149.138;2023-08-12T10:31:44;10.00;90.80
39931;DHT22;26635;-35.248;149.138;2023-08-12T10:34:25;10.00;90.80
39931;DHT22;26635;-35.248;149.138;2023-08-12T10:37:01;9.90;90.80
39931;DHT22;26635;-35.248;149.138;2023-08-12T10:39:33;9.90;90.80
39931;DHT22;26635;-35.248;149.138;2023-08-12T10:42:05;9.90;90.80
39931;DHT22;26635;-35.248;149.138;2023-08-12T10:44:50;9.90;90.80
39931;DHT22;26635;-35.248;149.138;2023-08-12T10:47:21;9.80;90.80
39931;DHT22;26635;-35.248;149.138;2023-08-12T10:49:53;9.80;91.30
39931;DHT22;26635;-35.248;149.138;2023-08-12T10:52:32;9.80;91.00
39931;DHT22;26635;-35.248;149.138;2023-08-12T10:57:52;9.70;91.20
39931;DHT22;26635;-35.248;149.138;2023-08-12T11:00:28;9.70;91.20
39931;DHT22;26635;-35.248;149.138;2023-08-12T11:02:59;9.60;91.20
39931;DHT22;26635;-35.248;149.138;2023-08-12T11:05:37;9.60;91.30
39931;DHT22;26635;-35.248;149.138;2023-08-12T11:08:07;9.60;91.40
39931;DHT22;26635;-35.248;149.138;2023-08-12T11:10:41;9.60;91.60
39931;DHT22;26635;-35.248;149.138;2023-08-12T11:13:14;9.50;91.70
39931;DHT22;26635;-35.248;149.138;2023-08-12T11:15:47;9.50;91.60
39931;DHT22;26635;-35.248;149.138;2023-08-12T11:18:20;9.50;91.90
39931;DHT22;26635;-35.248;149.138;2023-08-12T11:20:52;9.50;91.90
39931;DHT22;26635;-35.248;149.138;2023-08-12T11:23:24;9.50;91.70
39931;DHT22;26635;-35.248;149.138;2023-08-12T11:25:55;9.50;91.80
39931;DHT22;26635;-35.248;149.138;2023-08-12T11:28:26;9.50;91.90
39931;DHT22;26635;-35.248;149.138;2023-08-12T11:30:57;9.50;92.20
39931;DHT22;26635;-35.248;149.138;2023-08-12T11:33:28;9.50;92.10
39931;DHT22;26635;-35.248;149.138;2023-08-12T11:36:01;9.50;92.00
39931;DHT22;26635;-35.248;149.138;2023-08-12T11:38:32;9.50;92.20
39931;DHT22;26635;-35.248;149.138;2023-08-12T11:41:03;9.50;92.10
39931;DHT22;26635;-35.248;149.138;2023-08-12T11:43:34;9.50;92.40
39931;DHT22;26635;-35.248;149.138;2023-08-12T11:46:05;9.50;92.40
39931;DHT22;26635;-35.248;149.138;2023-08-12T11:48:36;9.40;92.20
39931;DHT22;26635;-35.248;149.138;2023-08-12T11:51:06;9.40;92.40
39931;DHT22;26635;-35.248;149.138;2023-08-12T11:53:38;9.40;92.40
39931;DHT22;26635;-35.248;149.138;2023-08-12T11:56:12;9.40;92.50
39931;DHT22;26635;-35.248;149.138;2023-08-12T11:58:43;9.40;92.70
39931;DHT22;26635;-35.248;149.138;2023-08-12T12:01:20;9.40;92.60
39931;DHT22;26635;-35.248;149.138;2023-08-12T12:03:55;9.40;92.40
39931;DHT22;26635;-35.248;149.138;2023-08-12T12:06:36;9.40;92.00
39931;DHT22;26635;-35.248;149.138;2023-08-12T12:09:09;9.30;92.20
39931;DHT22;26635;-35.248;149.138;2023-08-12T12:11:42;9.30;92.70
39931;DHT22;26635;-35.248;149.138;2023-08-12T12:14:14;9.30;92.80
39931;DHT22;26635;-35.248;149.138;2023-08-12T12:16:47;9.30;93.00
39931;DHT22;26635;-35.248;149.138;2023-08-12T12:19:23;9.30;93.10
39931;DHT22;26635;-35.248;149.138;2023-08-12T12:21:55;9.30;93.10
39931;DHT22;26635;-35.248;149.138;2023-08-12T12:24:29;9.30;93.10
39931;DHT22;26635;-35.248;149.138;2023-08-12T12:27:00;9.40;93.20
39931;DHT22;26635;-35.248;149.138;2023-08-12T12:29:31;9.30;93.20
39931;DHT22;26635;-35.248;149.138;2023-08-12T12:32:02;9.30;93.00
39931;DHT22;26635;-35.248;149.138;2023-08-12T12:34:34;9.40;93.10
39931;DHT22;26635;-35.248;149.138;2023-08-12T12:37:07;9.30;93.60
39931;DHT22;26635;-35.248;149.138;2023-08-12T12:39:37;9.30;93.40
39931;DHT22;26635;-35.248;149.138;2023-08-12T12:42:09;9.40;93.50
39931;DHT22;26635;-35.248;149.138;2023-08-12T12:44:41;9.40;93.40
39931;DHT22;26635;-35.248;149.138;2023-08-12T12:47:12;9.40;93.40
39931;DHT22;26635;-35.248;149.138;2023-08-12T12:49:44;9.40;93.30
39931;DHT22;26635;-35.248;149.138;2023-08-12T12:52:15;9.40;93.30
39931;DHT22;26635;-35.248;149.138;2023-08-12T12:54:46;9.40;93.30
39931;DHT22;26635;-35.248;149.138;2023-08-12T12:57:18;9.40;93.30
39931;DHT22;26635;-35.248;149.138;2023-08-12T12:59:49;9.40;93.30
39931;DHT22;26635;-35.248;149.138;2023-08-12T13:02:21;9.50;93.40
39931;DHT22;26635;-35.248;149.138;2023-08-12T13:04:52;9.50;93.40
39931;DHT22;26635;-35.248;149.138;2023-08-12T13:07:23;9.50;93.30
39931;DHT22;26635;-35.248;149.138;2023-08-12T13:09:54;9.50;93.20
39931;DHT22;26635;-35.248;149.138;2023-08-12T13:12:25;9.50;93.20
39931;DHT22;26635;-35.248;149.138;2023-08-12T13:14:56;9.50;93.30
39931;DHT22;26635;-35.248;149.138;2023-08-12T13:17:29;9.50;93.30
39931;DHT22;26635;-35.248;149.138;2023-08-12T13:20:00;9.50;93.40
39931;DHT22;26635;-35.248;149.138;2023-08-12T13:22:31;9.50;93.70
39931;DHT22;26635;-35.248;149.138;2023-08-12T13:25:02;9.50;93.50
39931;DHT22;26635;-35.248;149.138;2023-08-12T13:27:36;9.50;93.30
39931;DHT22;26635;-35.248;149.138;2023-08-12T13:30:07;9.50;93.40
39931;DHT22;26635;-35.248;149.138;2023-08-12T13:32:38;9.50;93.40
39931;DHT22;26635;-35.248;149.138;2023-08-12T13:35:09;9.60;93.50
39931;DHT22;26635;-35.248;149.138;2023-08-12T13:37:41;9.60;93.60
39931;DHT22;26635;-35.248;149.138;2023-08-12T13:40:12;9.60;93.40
39931;DHT22;26635;-35.248;149.138;2023-08-12T13:42:45;9.60;93.50
39931;DHT22;26635;-35.248;149.138;2023-08-12T13:45:20;9.60;93.40
39931;DHT22;26635;-35.248;149.138;2023-08-12T13:47:51;9.60;93.40
39931;DHT22;26635;-35.248;149.138;2023-08-12T13:50:22;9.60;93.50
39931;DHT22;26635;-35.248;149.138;2023-08-12T13:52:55;9.60;93.50
39931;DHT22;26635;-35.248;149.138;2023-08-12T13:55:26;9.60;93.30
39931;DHT22;26635;-35.248;149.138;2023-08-12T13:57:57;9.60;93.40
39931;DHT22;26635;-35.248;149.138;2023-08-12T14:00:27;9.60;93.50
39931;DHT22;26635;-35.248;149.138;2023-08-12T14:02:58;9.60;93.50
39931;DHT22;26635;-35.248;149.138;2023-08-12T14:05:31;9.60;93.70
39931;DHT22;26635;-35.248;149.138;2023-08-12T14:08:02;9.60;93.60
39931;DHT22;26635;-35.248;149.138;2023-08-12T14:10:33;9.60;93.60
39931;DHT22;26635;-35.248;149.138;2023-08-12T14:13:04;9.60;93.80
39931;DHT22;26635;-35.248;149.138;2023-08-12T14:15:38;9.60;93.50
39931;DHT22;26635;-35.248;149.138;2023-08-12T14:18:09;9.60;93.60
39931;DHT22;26635;-35.248;149.138;2023-08-12T14:20:41;9.60;93.60
39931;DHT22;26635;-35.248;149.138;2023-08-12T14:23:12;9.60;93.70
39931;DHT22;26635;-35.248;149.138;2023-08-12T14:25:43;9.60;93.80
39931;DHT22;26635;-35.248;149.138;2023-08-12T14:28:16;9.60;94.00
39931;DHT22;26635;-35.248;149.138;2023-08-12T14:30:47;9.60;93.90
39931;DHT22;26635;-35.248;149.138;2023-08-12T14:33:18;9.50;94.00
39931;DHT22;26635;-35.248;149.138;2023-08-12T14:35:48;9.50;94.00
39931;DHT22;26635;-35.248;149.138;2023-08-12T14:38:19;9.60;94.20
39931;DHT22;26635;-35.248;149.138;2023-08-12T14:40:59;9.50;94.10
39931;DHT22;26635;-35.248;149.138;2023-08-12T14:43:30;9.60;94.20
39931;DHT22;26635;-35.248;149.138;2023-08-12T14:46:01;9.60;94.30
39931;DHT22;26635;-35.248;149.138;2023-08-12T14:48:32;9.60;94.40
39931;DHT22;26635;-35.248;149.138;2023-08-12T14:51:03;9.60;94.50
39931;DHT22;26635;-35.248;149.138;2023-08-12T14:53:34;9.60;94.30
39931;DHT22;26635;-35.248;149.138;2023-08-12T14:56:05;9.60;94.40
39931;DHT22;26635;-35.248;149.138;2023-08-12T14:58:37;9.60;94.60
39931;DHT22;26635;-35.248;149.138;2023-08-12T15:01:08;9.60;94.60
39931;DHT22;26635;-35.248;149.138;2023-08-12T15:03:39;9.50;94.60
39931;DHT22;26635;-35.248;149.138;2023-08-12T15:06:10;9.50;94.70
39931;DHT22;26635;-35.248;149.138;2023-08-12T15:08:41;9.50;94.80
39931;DHT22;26635;-35.248;149.138;2023-08-12T15:11:13;9.50;94.90
39931;DHT22;26635;-35.248;149.138;2023-08-12T15:13:44;9.50;95.10
39931;DHT22;26635;-35.248;149.138;2023-08-12T15:16:16;9.50;95.20
39931;DHT22;26635;-35.248;149.138;2023-08-12T15:18:47;9.50;95.40
39931;DHT22;26635;-35.248;149.138;2023-08-12T15:21:18;9.50;95.60
39931;DHT22;26635;-35.248;149.138;2023-08-12T15:23:49;9.50;95.70
39931;DHT22;26635;-35.248;149.138;2023-08-12T15:26:21;9.50;95.90
39931;DHT22;26635;-35.248;149.138;2023-08-12T15:28:58;9.40;96.00
39931;DHT22;26635;-35.248;149.138;2023-08-12T15:31:29;9.40;96.10